sensor_id;sensor_type;location;lat;lon;timestamp;pressure;altitude;pressure_sealevel;temperature;humidity
77778;BME280;66966;-34.746;138.604;2023-07-13T00:02:10;102490.24;;;11.25;39.47
77778;BME280;66966;-34.746;138.604;2023-07-13T00:04:36;102491.06;;;11.57;39.49
77778;BME280;66966;-34.746;138.604;2023-07-13T00:07:01;102499.77;;;12.02;39.40
77778;BME280;66966;-34.746;138.604;2023-07-13T00:09:27;102502.03;;;11.66;39.39
77778;BME280;66966;-34.746;138.604;2023-07-13T00:11:55;102499.01;;;11.73;39.19
77778;BME280;66966;-34.746;138.604;2023-07-13T00:14:18;102501.08;;;12.32;39.33
77778;BME280;66966;-34.746;138.604;2023-07-13T00:16:45;102497.18;;;12.27;39.30
77778;BME280;66966;-34.746;138.604;2023-07-13T00:19:10;102501.45;;;12.06;39.39
77778;BME280;66966;-34.746;138.604;2023-07-13T00:21:36;102503.78;;;12.25;39.44
77778;BME280;66966;-34.746;138.604;2023-07-13T00:24:02;102503.07;;;12.36;39.32
77778;BME280;66966;-34.746;138.604;2023-07-13T00:26:27;102497.93;;;12.83;39.00
77778;BME280;66966;-34.746;138.604;2023-07-13T00:28:53;102500.52;;;12.66;38.89
77778;BME280;66966;-34.746;138.604;2023-07-13T00:31:19;102495.28;;;12.56;38.65
77778;BME280;66966;-34.746;138.604;2023-07-13T00:33:44;102491.29;;;12.82;37.66
77778;BME280;66966;-34.746;138.604;2023-07-13T00:36:11;102491.65;;;12.93;37.67
77778;BME280;66966;-34.746;138.604;2023-07-13T00:38:36;102489.10;;;13.12;38.00
77778;BME280;66966;-34.746;138.604;2023-07-13T00:41:03;102488.79;;;13.17;37.92
77778;BME280;66966;-34.746;138.604;2023-07-13T00:43:28;102484.73;;;13.08;37.92
77778;BME280;66966;-34.746;138.604;2023-07-13T00:48:21;102483.24;;;13.71;37.71
77778;BME280;66966;-34.746;138.604;2023-07-13T00:50:47;102477.10;;;13.91;37.56
77778;BME280;66966;-34.746;138.604;2023-07-13T00:53:11;102471.59;;;14.06;36.78
77778;BME280;66966;-34.746;138.604;2023-07-13T00:55:37;102465.39;;;13.81;36.82
77778;BME280;66966;-34.746;138.604;2023-07-13T00:58:02;102472.39;;;14.15;36.38
77778;BME280;66966;-34.746;138.604;2023-07-13T01:00:28;102471.30;;;14.07;36.99
77778;BME280;66966;-34.746;138.604;2023-07-13T01:02:53;102470.32;;;14.24;36.88
77778;BME280;66966;-34.746;138.604;2023-07-13T01:05:21;102464.41;;;14.46;36.76
77778;BME280;66966;-34.746;138.604;2023-07-13T01:07:45;102466.95;;;14.39;36.39
77778;BME280;66966;-34.746;138.604;2023-07-13T01:10:11;102465.66;;;14.54;35.92
77778;BME280;66966;-34.746;138.604;2023-07-13T01:12:36;102463.18;;;14.57;36.08
77778;BME280;66966;-34.746;138.604;2023-07-13T01:15:02;102466.31;;;14.94;35.90
77778;BME280;66966;-34.746;138.604;2023-07-13T01:17:28;102456.47;;;14.65;35.70
77778;BME280;66966;-34.746;138.604;2023-07-13T01:19:53;102451.48;;;14.70;35.76
77778;BME280;66966;-34.746;138.604;2023-07-13T01:22:19;102453.40;;;15.10;35.74
77778;BME280;66966;-34.746;138.604;2023-07-13T01:24:45;102454.35;;;15.02;34.74
77778;BME280;66966;-34.746;138.604;2023-07-13T01:27:11;102461.72;;;14.91;35.00
77778;BME280;66966;-34.746;138.604;2023-07-13T01:29:37;102460.30;;;15.22;34.76
77778;BME280;66966;-34.746;138.604;2023-07-13T01:32:01;102463.33;;;14.93;34.54
77778;BME280;66966;-34.746;138.604;2023-07-13T01:34:26;102464.13;;;15.00;34.56
77778;BME280;66966;-34.746;138.604;2023-07-13T01:36:52;102467.54;;;14.95;34.50
77778;BME280;66966;-34.746;138.604;2023-07-13T01:39:18;102461.28;;;15.18;34.18
77778;BME280;66966;-34.746;138.604;2023-07-13T01:41:43;102458.88;;;15.24;33.86
77778;BME280;66966;-34.746;138.604;2023-07-13T01:44:09;102455.25;;;15.42;33.87
77778;BME280;66966;-34.746;138.604;2023-07-13T01:46:34;102453.96;;;15.77;33.40
77778;BME280;66966;-34.746;138.604;2023-07-13T01:49:00;102447.07;;;15.51;33.74
77778;BME280;66966;-34.746;138.604;2023-07-13T01:51:26;102438.87;;;15.60;33.41
77778;BME280;66966;-34.746;138.604;2023-07-13T01:53:52;102442.58;;;15.53;33.66
77778;BME280;66966;-34.746;138.604;2023-07-13T01:56:17;102441.54;;;15.67;33.75
77778;BME280;66966;-34.746;138.604;2023-07-13T01:58:42;102437.76;;;15.70;34.04
77778;BME280;66966;-34.746;138.604;2023-07-13T02:01:08;102433.92;;;15.85;32.62
77778;BME280;66966;-34.746;138.604;2023-07-13T02:03:34;102430.22;;;15.84;33.45
77778;BME280;66966;-34.746;138.604;2023-07-13T02:06:00;102436.13;;;15.96;32.82
77778;BME280;66966;-34.746;138.604;2023-07-13T02:08:25;102423.18;;;15.84;33.24
77778;BME280;66966;-34.746;138.604;2023-07-13T02:10:50;102424.39;;;15.99;33.54
77778;BME280;66966;-34.746;138.604;2023-07-13T02:13:16;102427.47;;;16.09;33.50
77778;BME280;66966;-34.746;138.604;2023-07-13T02:15:42;102426.19;;;15.94;33.02
77778;BME280;66966;-34.746;138.604;2023-07-13T02:18:08;102410.71;;;16.28;32.41
77778;BME280;66966;-34.746;138.604;2023-07-13T02:20:33;102404.66;;;16.14;32.39
77778;BME280;66966;-34.746;138.604;2023-07-13T02:22:58;102401.45;;;16.47;32.68
77778;BME280;66966;-34.746;138.604;2023-07-13T02:25:24;102396.39;;;16.59;32.70
77778;BME280;66966;-34.746;138.604;2023-07-13T02:27:50;102389.78;;;16.59;32.90
77778;BME280;66966;-34.746;138.604;2023-07-13T02:30:16;102383.67;;;16.14;32.55
77778;BME280;66966;-34.746;138.604;2023-07-13T02:32:41;102376.18;;;16.23;32.70
77778;BME280;66966;-34.746;138.604;2023-07-13T02:35:07;102372.81;;;16.41;32.48
77778;BME280;66966;-34.746;138.604;2023-07-13T02:37:32;102367.83;;;16.37;32.40
77778;BME280;66966;-34.746;138.604;2023-07-13T02:39:57;102360.80;;;16.70;32.19
77778;BME280;66966;-34.746;138.604;2023-07-13T02:42:24;102358.42;;;16.63;32.52
77778;BME280;66966;-34.746;138.604;2023-07-13T02:44:49;102353.38;;;17.00;31.95
77778;BME280;66966;-34.746;138.604;2023-07-13T02:47:14;102346.85;;;17.00;31.39
77778;BME280;66966;-34.746;138.604;2023-07-13T02:49:40;102342.96;;;16.73;31.67
77778;BME280;66966;-34.746;138.604;2023-07-13T02:52:06;102337.57;;;16.80;31.56
77778;BME280;66966;-34.746;138.604;2023-07-13T02:54:31;102325.51;;;16.57;32.00
77778;BME280;66966;-34.746;138.604;2023-07-13T02:56:56;102325.31;;;16.87;32.17
77778;BME280;66966;-34.746;138.604;2023-07-13T02:59:22;102313.60;;;16.75;32.19
77778;BME280;66966;-34.746;138.604;2023-07-13T03:01:48;102315.50;;;17.09;31.67
77778;BME280;66966;-34.746;138.604;2023-07-13T03:04:13;102310.66;;;17.08;31.75
77778;BME280;66966;-34.746;138.604;2023-07-13T03:06:39;102301.16;;;16.97;32.04
77778;BME280;66966;-34.746;138.604;2023-07-13T03:09:05;102295.67;;;17.00;32.41
77778;BME280;66966;-34.746;138.604;2023-07-13T03:11:30;102288.32;;;16.52;32.27
77778;BME280;66966;-34.746;138.604;2023-07-13T03:13:57;102287.55;;;17.19;32.09
77778;BME280;66966;-34.746;138.604;2023-07-13T03:16:21;102285.77;;;16.67;32.01
77778;BME280;66966;-34.746;138.604;2023-07-13T03:18:48;102277.10;;;17.22;31.43
77778;BME280;66966;-34.746;138.604;2023-07-13T03:21:12;102265.31;;;17.34;31.42
77778;BME280;66966;-34.746;138.604;2023-07-13T03:23:38;102254.89;;;17.14;31.53
77778;BME280;66966;-34.746;138.604;2023-07-13T03:26:07;102254.22;;;17.31;31.49
77778;BME280;66966;-34.746;138.604;2023-07-13T03:28:29;102244.19;;;17.49;31.04
77778;BME280;66966;-34.746;138.604;2023-07-13T03:31:00;102242.97;;;17.22;30.41
77778;BME280;66966;-34.746;138.604;2023-07-13T03:33:20;102237.42;;;17.54;29.92
77778;BME280;66966;-34.746;138.604;2023-07-13T03:35:45;102228.55;;;17.58;29.38
77778;BME280;66966;-34.746;138.604;2023-07-13T03:38:11;102218.94;;;17.46;29.65
77778;BME280;66966;-34.746;138.604;2023-07-13T03:40:37;102221.04;;;17.81;29.33
77778;BME280;66966;-34.746;138.604;2023-07-13T03:43:02;102216.97;;;17.48;29.38
77778;BME280;66966;-34.746;138.604;2023-07-13T03:45:27;102214.46;;;17.52;29.53
77778;BME280;66966;-34.746;138.604;2023-07-13T03:47:52;102211.29;;;17.79;28.92
77778;BME280;66966;-34.746;138.604;2023-07-13T03:50:18;102201.97;;;17.90;29.36
77778;BME280;66966;-34.746;138.604;2023-07-13T03:52:44;102199.73;;;17.70;29.59
77778;BME280;66966;-34.746;138.604;2023-07-13T03:55:10;102197.37;;;18.15;29.74
77778;BME280;66966;-34.746;138.604;2023-07-13T03:57:35;102198.70;;;17.64;29.21
77778;BME280;66966;-34.746;138.604;2023-07-13T04:00:00;102193.39;;;17.73;28.85
77778;BME280;66966;-34.746;138.604;2023-07-13T04:02:26;102185.14;;;17.70;28.93
77778;BME280;66966;-34.746;138.604;2023-07-13T04:04:51;102183.83;;;17.81;29.28
77778;BME280;66966;-34.746;138.604;2023-07-13T04:07:17;102178.91;;;17.84;29.16
77778;BME280;66966;-34.746;138.604;2023-07-13T04:09:42;102175.98;;;18.00;29.06
77778;BME280;66966;-34.746;138.604;2023-07-13T04:12:08;102174.18;;;17.92;29.13
77778;BME280;66966;-34.746;138.604;2023-07-13T04:14:33;102173.04;;;18.04;28.76
77778;BME280;66966;-34.746;138.604;2023-07-13T04:16:59;102171.45;;;17.78;28.82
77778;BME280;66966;-34.746;138.604;2023-07-13T04:19:25;102165.04;;;17.90;29.26
77778;BME280;66966;-34.746;138.604;2023-07-13T04:21:50;102163.31;;;18.25;28.77
77778;BME280;66966;-34.746;138.604;2023-07-13T04:24:16;102160.96;;;18.05;28.75
77778;BME280;66966;-34.746;138.604;2023-07-13T04:26:41;102156.53;;;18.21;28.46
77778;BME280;66966;-34.746;138.604;2023-07-13T04:29:07;102156.11;;;18.16;28.08
77778;BME280;66966;-34.746;138.604;2023-07-13T04:31:33;102155.35;;;18.31;28.51
77778;BME280;66966;-34.746;138.604;2023-07-13T04:33:57;102152.32;;;18.42;28.06
77778;BME280;66966;-34.746;138.604;2023-07-13T04:36:23;102150.95;;;18.22;27.69
77778;BME280;66966;-34.746;138.604;2023-07-13T04:38:48;102149.51;;;18.55;27.91
77778;BME280;66966;-34.746;138.604;2023-07-13T04:41:14;102144.28;;;18.56;27.68
77778;BME280;66966;-34.746;138.604;2023-07-13T04:43:40;102138.68;;;18.41;27.47
77778;BME280;66966;-34.746;138.604;2023-07-13T04:46:06;102137.56;;;18.76;27.24
77778;BME280;66966;-34.746;138.604;2023-07-13T04:48:30;102135.54;;;18.56;26.76
77778;BME280;66966;-34.746;138.604;2023-07-13T04:50:57;102131.29;;;18.70;27.31
77778;BME280;66966;-34.746;138.604;2023-07-13T04:53:22;102121.94;;;17.85;27.46
77778;BME280;66966;-34.746;138.604;2023-07-13T04:55:47;102124.23;;;18.46;26.87
77778;BME280;66966;-34.746;138.604;2023-07-13T04:58:12;102115.34;;;19.03;26.22
77778;BME280;66966;-34.746;138.604;2023-07-13T05:00:38;102120.37;;;18.37;26.78
77778;BME280;66966;-34.746;138.604;2023-07-13T05:03:04;102117.04;;;18.56;27.02
77778;BME280;66966;-34.746;138.604;2023-07-13T05:05:29;102117.38;;;18.40;26.71
77778;BME280;66966;-34.746;138.604;2023-07-13T05:07:55;102105.54;;;18.59;26.62
77778;BME280;66966;-34.746;138.604;2023-07-13T05:10:20;102107.01;;;18.12;27.26
77778;BME280;66966;-34.746;138.604;2023-07-13T05:12:45;102104.97;;;18.68;27.44
77778;BME280;66966;-34.746;138.604;2023-07-13T05:15:11;102109.53;;;18.28;26.57
77778;BME280;66966;-34.746;138.604;2023-07-13T05:17:36;102108.19;;;18.78;25.62
77778;BME280;66966;-34.746;138.604;2023-07-13T05:20:02;102108.32;;;18.21;25.68
77778;BME280;66966;-34.746;138.604;2023-07-13T05:22:27;102116.73;;;18.21;26.57
77778;BME280;66966;-34.746;138.604;2023-07-13T05:24:52;102118.62;;;18.47;26.07
77778;BME280;66966;-34.746;138.604;2023-07-13T05:27:18;102115.77;;;18.65;25.48
77778;BME280;66966;-34.746;138.604;2023-07-13T05:29:43;102113.48;;;18.66;25.25
77778;BME280;66966;-34.746;138.604;2023-07-13T05:32:09;102108.35;;;18.56;25.40
77778;BME280;66966;-34.746;138.604;2023-07-13T05:34:34;102105.69;;;18.22;25.48
77778;BME280;66966;-34.746;138.604;2023-07-13T05:37:00;102099.85;;;18.15;25.75
77778;BME280;66966;-34.746;138.604;2023-07-13T05:39:25;102096.76;;;18.14;25.78
77778;BME280;66966;-34.746;138.604;2023-07-13T05:41:51;102098.40;;;18.29;26.33
77778;BME280;66966;-34.746;138.604;2023-07-13T05:44:17;102092.66;;;18.87;25.82
77778;BME280;66966;-34.746;138.604;2023-07-13T05:46:42;102098.95;;;18.20;26.04
77778;BME280;66966;-34.746;138.604;2023-07-13T05:49:07;102094.17;;;18.77;26.06
77778;BME280;66966;-34.746;138.604;2023-07-13T05:51:33;102092.45;;;18.44;26.50
77778;BME280;66966;-34.746;138.604;2023-07-13T05:53:58;102093.89;;;18.27;26.70
77778;BME280;66966;-34.746;138.604;2023-07-13T05:56:24;102091.13;;;18.30;27.05
77778;BME280;66966;-34.746;138.604;2023-07-13T05:58:50;102088.16;;;18.32;27.31
77778;BME280;66966;-34.746;138.604;2023-07-13T06:01:15;102085.67;;;18.55;27.36
77778;BME280;66966;-34.746;138.604;2023-07-13T06:03:40;102083.95;;;18.56;27.60
77778;BME280;66966;-34.746;138.604;2023-07-13T06:06:06;102077.38;;;18.31;27.55
77778;BME280;66966;-34.746;138.604;2023-07-13T06:08:32;102082.05;;;18.52;27.69
77778;BME280;66966;-34.746;138.604;2023-07-13T06:11:03;102082.05;;;18.52;27.61
77778;BME280;66966;-34.746;138.604;2023-07-13T06:13:22;102077.19;;;18.24;28.03
77778;BME280;66966;-34.746;138.604;2023-07-13T06:15:50;102076.08;;;18.35;27.79
77778;BME280;66966;-34.746;138.604;2023-07-13T06:18:13;102072.09;;;18.37;27.75
77778;BME280;66966;-34.746;138.604;2023-07-13T06:20:39;102067.57;;;18.47;27.36
77778;BME280;66966;-34.746;138.604;2023-07-13T06:23:04;102064.39;;;17.99;27.27
77778;BME280;66966;-34.746;138.604;2023-07-13T06:25:30;102057.12;;;18.31;27.59
77778;BME280;66966;-34.746;138.604;2023-07-13T06:27:55;102053.82;;;18.06;27.38
77778;BME280;66966;-34.746;138.604;2023-07-13T06:30:20;102051.58;;;18.06;27.61
77778;BME280;66966;-34.746;138.604;2023-07-13T06:32:46;102051.99;;;18.21;27.95
77778;BME280;66966;-34.746;138.604;2023-07-13T06:35:11;102055.57;;;18.31;27.85
77778;BME280;66966;-34.746;138.604;2023-07-13T06:37:37;102052.92;;;18.20;27.99
77778;BME280;66966;-34.746;138.604;2023-07-13T06:40:02;102055.07;;;18.23;28.22
77778;BME280;66966;-34.746;138.604;2023-07-13T06:42:28;102056.78;;;18.28;28.20
77778;BME280;66966;-34.746;138.604;2023-07-13T06:44:54;102054.23;;;17.96;27.67
77778;BME280;66966;-34.746;138.604;2023-07-13T06:47:19;102051.58;;;18.10;28.24
77778;BME280;66966;-34.746;138.604;2023-07-13T06:49:44;102053.09;;;18.10;28.35
77778;BME280;66966;-34.746;138.604;2023-07-13T06:52:10;102048.70;;;18.01;28.26
77778;BME280;66966;-34.746;138.604;2023-07-13T06:54:35;102047.37;;;17.67;28.42
77778;BME280;66966;-34.746;138.604;2023-07-13T06:57:01;102044.27;;;17.73;28.33
77778;BME280;66966;-34.746;138.604;2023-07-13T06:59:26;102041.51;;;17.59;28.49
77778;BME280;66966;-34.746;138.604;2023-07-13T07:01:52;102039.94;;;17.60;28.44
77778;BME280;66966;-34.746;138.604;2023-07-13T07:04:18;102039.19;;;17.38;28.78
77778;BME280;66966;-34.746;138.604;2023-07-13T07:06:43;102042.58;;;17.16;28.70
77778;BME280;66966;-34.746;138.604;2023-07-13T07:09:09;102041.70;;;17.03;29.13
77778;BME280;66966;-34.746;138.604;2023-07-13T07:11:34;102043.65;;;16.93;29.43
77778;BME280;66966;-34.746;138.604;2023-07-13T07:14:00;102041.57;;;17.40;29.30
77778;BME280;66966;-34.746;138.604;2023-07-13T07:16:25;102036.05;;;16.79;29.50
77778;BME280;66966;-34.746;138.604;2023-07-13T07:18:51;102030.28;;;16.65;29.65
77778;BME280;66966;-34.746;138.604;2023-07-13T07:21:17;102022.68;;;17.09;29.75
77778;BME280;66966;-34.746;138.604;2023-07-13T07:23:42;102017.59;;;17.06;29.73
77778;BME280;66966;-34.746;138.604;2023-07-13T07:26:08;102018.05;;;16.57;29.78
77778;BME280;66966;-34.746;138.604;2023-07-13T07:28:33;102017.42;;;16.83;29.73
77778;BME280;66966;-34.746;138.604;2023-07-13T07:30:59;102015.99;;;16.99;29.93
77778;BME280;66966;-34.746;138.604;2023-07-13T07:33:24;102015.58;;;16.75;29.93
77778;BME280;66966;-34.746;138.604;2023-07-13T07:35:50;102014.67;;;17.15;30.06
77778;BME280;66966;-34.746;138.604;2023-07-13T07:38:16;102009.58;;;16.84;30.29
77778;BME280;66966;-34.746;138.604;2023-07-13T07:40:42;102008.39;;;16.84;30.42
77778;BME280;66966;-34.746;138.604;2023-07-13T07:43:07;102007.03;;;16.82;30.52
77778;BME280;66966;-34.746;138.604;2023-07-13T07:45:32;102001.00;;;16.74;30.69
77778;BME280;66966;-34.746;138.604;2023-07-13T07:47:58;101999.31;;;16.67;30.79
77778;BME280;66966;-34.746;138.604;2023-07-13T07:50:23;102003.21;;;16.51;30.96
77778;BME280;66966;-34.746;138.604;2023-07-13T07:52:48;102004.87;;;16.51;31.01
77778;BME280;66966;-34.746;138.604;2023-07-13T07:55:14;102000.79;;;16.72;31.03
77778;BME280;66966;-34.746;138.604;2023-07-13T07:57:40;101994.89;;;16.38;31.10
77778;BME280;66966;-34.746;138.604;2023-07-13T08:00:09;101991.83;;;16.32;31.13
77778;BME280;66966;-34.746;138.604;2023-07-13T08:02:31;101996.37;;;16.14;31.23
77778;BME280;66966;-34.746;138.604;2023-07-13T08:04:56;101994.71;;;16.59;31.32
77778;BME280;66966;-34.746;138.604;2023-07-13T08:07:22;102001.58;;;16.04;31.35
77778;BME280;66966;-34.746;138.604;2023-07-13T08:09:48;101998.02;;;16.02;31.22
77778;BME280;66966;-34.746;138.604;2023-07-13T08:12:14;101997.56;;;16.10;31.35
77778;BME280;66966;-34.746;138.604;2023-07-13T08:14:39;101999.66;;;16.02;31.44
77778;BME280;66966;-34.746;138.604;2023-07-13T08:17:05;102000.53;;;16.19;31.46
77778;BME280;66966;-34.746;138.604;2023-07-13T08:19:30;101999.18;;;15.95;31.48
77778;BME280;66966;-34.746;138.604;2023-07-13T08:21:56;101998.44;;;16.13;31.46
77778;BME280;66966;-34.746;138.604;2023-07-13T08:24:24;102003.04;;;16.05;31.59
77778;BME280;66966;-34.746;138.604;2023-07-13T08:26:47;101999.12;;;15.79;31.64
77778;BME280;66966;-34.746;138.604;2023-07-13T08:29:12;102000.27;;;15.93;31.64
77778;BME280;66966;-34.746;138.604;2023-07-13T08:31:38;102000.64;;;15.86;31.73
77778;BME280;66966;-34.746;138.604;2023-07-13T08:34:04;102001.75;;;15.52;31.79
77778;BME280;66966;-34.746;138.604;2023-07-13T08:36:31;101993.60;;;15.42;31.99
77778;BME280;66966;-34.746;138.604;2023-07-13T08:38:55;101990.25;;;15.56;32.04
77778;BME280;66966;-34.746;138.604;2023-07-13T08:41:21;101995.09;;;15.19;32.17
77778;BME280;66966;-34.746;138.604;2023-07-13T08:43:49;101995.88;;;15.30;32.41
77778;BME280;66966;-34.746;138.604;2023-07-13T08:46:16;101997.13;;;15.43;32.42
77778;BME280;66966;-34.746;138.604;2023-07-13T08:48:44;102001.77;;;15.13;32.53
77778;BME280;66966;-34.746;138.604;2023-07-13T08:51:11;102003.72;;;15.32;32.54
77778;BME280;66966;-34.746;138.604;2023-07-13T08:53:33;102004.64;;;15.34;32.53
77778;BME280;66966;-34.746;138.604;2023-07-13T08:55:59;102006.50;;;15.04;32.46
77778;BME280;66966;-34.746;138.604;2023-07-13T08:58:20;102009.07;;;15.01;32.39
77778;BME280;66966;-34.746;138.604;2023-07-13T09:00:52;102011.76;;;14.96;32.38
77778;BME280;66966;-34.746;138.604;2023-07-13T09:03:20;102011.17;;;14.91;32.36
77778;BME280;66966;-34.746;138.604;2023-07-13T09:05:40;102008.70;;;15.04;32.36
77778;BME280;66966;-34.746;138.604;2023-07-13T09:08:14;102009.90;;;15.21;32.38
77778;BME280;66966;-34.746;138.604;2023-07-13T09:10:30;102012.75;;;14.93;32.36
77778;BME280;66966;-34.746;138.604;2023-07-13T09:13:04;102021.82;;;14.66;32.36
77778;BME280;66966;-34.746;138.604;2023-07-13T09:15:27;102028.27;;;15.08;32.25
77778;BME280;66966;-34.746;138.604;2023-07-13T09:17:49;102023.12;;;14.74;32.36
77778;BME280;66966;-34.746;138.604;2023-07-13T09:20:17;102019.66;;;14.47;32.41
77778;BME280;66966;-34.746;138.604;2023-07-13T09:22:38;102015.21;;;14.85;32.39
77778;BME280;66966;-34.746;138.604;2023-07-13T09:27:33;102020.02;;;14.55;32.40
77778;BME280;66966;-34.746;138.604;2023-07-13T09:30:00;102016.82;;;14.39;32.57
77778;BME280;66966;-34.746;138.604;2023-07-13T09:32:21;102018.47;;;14.59;32.67
77778;BME280;66966;-34.746;138.604;2023-07-13T09:34:53;102018.34;;;14.50;32.78
77778;BME280;66966;-34.746;138.604;2023-07-13T09:37:11;102027.18;;;14.47;32.82
77778;BME280;66966;-34.746;138.604;2023-07-13T09:39:38;102032.83;;;14.52;32.82
77778;BME280;66966;-34.746;138.604;2023-07-13T09:42:07;102036.43;;;14.59;32.70
77778;BME280;66966;-34.746;138.604;2023-07-13T09:44:33;102035.39;;;14.59;32.63
77778;BME280;66966;-34.746;138.604;2023-07-13T09:46:54;102036.46;;;14.52;32.69
77778;BME280;66966;-34.746;138.604;2023-07-13T09:49:22;102039.65;;;14.01;32.83
77778;BME280;66966;-34.746;138.604;2023-07-13T09:51:44;102040.41;;;13.93;32.80
77778;BME280;66966;-34.746;138.604;2023-07-13T09:54:19;102042.57;;;14.32;32.90
77778;BME280;66966;-34.746;138.604;2023-07-13T09:56:35;102045.92;;;14.20;33.07
77778;BME280;66966;-34.746;138.604;2023-07-13T09:59:01;102041.14;;;14.21;33.06
77778;BME280;66966;-34.746;138.604;2023-07-13T10:01:32;102047.86;;;14.15;33.09
77778;BME280;66966;-34.746;138.604;2023-07-13T10:03:54;102056.50;;;14.12;33.09
77778;BME280;66966;-34.746;138.604;2023-07-13T10:06:20;102061.18;;;14.12;33.09
77778;BME280;66966;-34.746;138.604;2023-07-13T10:08:45;102057.57;;;13.99;33.21
77778;BME280;66966;-34.746;138.604;2023-07-13T10:11:13;102054.66;;;14.24;33.17
77778;BME280;66966;-34.746;138.604;2023-07-13T10:13:36;102057.29;;;13.95;33.13
77778;BME280;66966;-34.746;138.604;2023-07-13T10:16:01;102056.27;;;13.96;33.07
77778;BME280;66966;-34.746;138.604;2023-07-13T10:18:27;102054.02;;;13.76;32.94
77778;BME280;66966;-34.746;138.604;2023-07-13T10:20:59;102054.99;;;14.27;32.67
77778;BME280;66966;-34.746;138.604;2023-07-13T10:23:23;102060.23;;;14.33;32.82
77778;BME280;66966;-34.746;138.604;2023-07-13T10:25:44;102072.01;;;14.02;32.89
77778;BME280;66966;-34.746;138.604;2023-07-13T10:28:19;102066.66;;;14.21;32.92
77778;BME280;66966;-34.746;138.604;2023-07-13T10:30:38;102067.93;;;14.11;32.93
77778;BME280;66966;-34.746;138.604;2023-07-13T10:33:03;102074.91;;;14.08;33.02
77778;BME280;66966;-34.746;138.604;2023-07-13T10:35:27;102074.15;;;13.81;33.07
77778;BME280;66966;-34.746;138.604;2023-07-13T10:37:55;102071.47;;;13.87;33.15
77778;BME280;66966;-34.746;138.604;2023-07-13T10:40:22;102067.05;;;13.54;33.26
77778;BME280;66966;-34.746;138.604;2023-07-13T10:42:46;102068.85;;;13.48;33.32
77778;BME280;66966;-34.746;138.604;2023-07-13T10:45:15;102069.76;;;13.98;33.29
77778;BME280;66966;-34.746;138.604;2023-07-13T10:47:34;102069.10;;;13.92;33.27
77778;BME280;66966;-34.746;138.604;2023-07-13T10:50:01;102064.88;;;13.61;33.37
77778;BME280;66966;-34.746;138.604;2023-07-13T10:52:43;102061.56;;;13.58;33.38
77778;BME280;66966;-34.746;138.604;2023-07-13T10:54:51;102065.63;;;13.58;33.39
77778;BME280;66966;-34.746;138.604;2023-07-13T10:57:20;102066.56;;;13.67;33.45
77778;BME280;66966;-34.746;138.604;2023-07-13T10:59:44;102061.85;;;13.71;33.46
77778;BME280;66966;-34.746;138.604;2023-07-13T11:04:40;102064.09;;;13.37;33.50
77778;BME280;66966;-34.746;138.604;2023-07-13T11:07:10;102064.81;;;13.18;33.48
77778;BME280;66966;-34.746;138.604;2023-07-13T11:09:36;102064.26;;;13.40;33.44
77778;BME280;66966;-34.746;138.604;2023-07-13T11:11:51;102068.47;;;13.40;33.42
77778;BME280;66966;-34.746;138.604;2023-07-13T11:14:30;102073.82;;;13.28;33.52
77778;BME280;66966;-34.746;138.604;2023-07-13T11:16:47;102074.41;;;13.32;33.63
77778;BME280;66966;-34.746;138.604;2023-07-13T11:21:35;102072.64;;;13.41;33.67
77778;BME280;66966;-34.746;138.604;2023-07-13T11:24:13;102068.96;;;13.29;33.84
77778;BME280;66966;-34.746;138.604;2023-07-13T11:26:40;102069.26;;;13.26;33.79
77778;BME280;66966;-34.746;138.604;2023-07-13T11:28:52;102073.67;;;13.18;33.90
77778;BME280;66966;-34.746;138.604;2023-07-13T11:31:18;102072.96;;;13.16;33.96
77778;BME280;66966;-34.746;138.604;2023-07-13T11:33:55;102076.16;;;13.14;34.02
77778;BME280;66966;-34.746;138.604;2023-07-13T11:36:14;102077.27;;;13.18;34.04
77778;BME280;66966;-34.746;138.604;2023-07-13T11:38:38;102076.62;;;12.97;34.12
77778;BME280;66966;-34.746;138.604;2023-07-13T11:41:04;102079.77;;;13.24;34.13
77778;BME280;66966;-34.746;138.604;2023-07-13T11:43:27;102079.92;;;13.24;34.21
77778;BME280;66966;-34.746;138.604;2023-07-13T11:45:52;102080.23;;;12.94;34.37
77778;BME280;66966;-34.746;138.604;2023-07-13T11:48:26;102080.73;;;13.15;34.55
77778;BME280;66966;-34.746;138.604;2023-07-13T11:50:52;102074.82;;;12.92;34.61
77778;BME280;66966;-34.746;138.604;2023-07-13T11:53:11;102072.91;;;13.13;34.69
77778;BME280;66966;-34.746;138.604;2023-07-13T11:55:39;102072.37;;;12.96;34.68
77778;BME280;66966;-34.746;138.604;2023-07-13T11:58:02;102076.86;;;13.21;34.78
77778;BME280;66966;-34.746;138.604;2023-07-13T12:00:29;102074.07;;;12.81;34.96
77778;BME280;66966;-34.746;138.604;2023-07-13T12:02:54;102071.25;;;13.04;35.00
77778;BME280;66966;-34.746;138.604;2023-07-13T12:05:19;102068.59;;;13.03;35.01
77778;BME280;66966;-34.746;138.604;2023-07-13T12:07:43;102067.55;;;13.23;35.04
77778;BME280;66966;-34.746;138.604;2023-07-13T12:10:17;102068.08;;;12.99;35.06
77778;BME280;66966;-34.746;138.604;2023-07-13T12:12:36;102070.49;;;12.99;35.00
77778;BME280;66966;-34.746;138.604;2023-07-13T12:15:01;102073.73;;;13.09;34.81
77778;BME280;66966;-34.746;138.604;2023-07-13T12:17:28;102071.71;;;13.11;34.72
77778;BME280;66966;-34.746;138.604;2023-07-13T12:19:53;102070.79;;;13.01;34.86
77778;BME280;66966;-34.746;138.604;2023-07-13T12:22:19;102070.17;;;13.19;34.92